Artigas International Airport


Codes: SUAG/ATI
Name: Artigas International Airport
City: Artigas
Country: Uruguay
Elevation: 410 ft.

Photos at Artigas International Airport


   Photos courtesy of SpottingLog. You can add your own sightings and photos by signing up for a free trial today.



No photos found.

Weather at Artigas International Airport


Time (UTC)DescriptionTempratureWindCloud coverageVisibilityPressureHumidity
15-Apr-2024 18:00Moderate Rain23°C13 mph, N100%10000m1006hPa98%
15-Apr-2024 21:00Moderate Rain23°C13 mph, NW100%10000m1006hPa98%
16-Apr-2024 00:00Moderate Rain21°C11 mph, NW100%10000m1008hPa96%
16-Apr-2024 03:00Light Rain19°C7 mph, NW100%10000m1009hPa98%
16-Apr-2024 06:00Light Rain18°C9 mph, NW100%10000m1009hPa97%
16-Apr-2024 09:00Light Rain17°C7 mph, W100%10000m1010hPa96%
16-Apr-2024 12:00Light Rain17°C9 mph, W100%10000m1012hPa94%
16-Apr-2024 15:00Broken Clouds21°C11 mph, W80%10000m1013hPa76%
16-Apr-2024 18:00Broken Clouds21°C16 mph, W71%10000m1012hPa74%
16-Apr-2024 21:00Light Rain18°C13 mph, W39%10000m1014hPa82%
17-Apr-2024 00:00Few Clouds15°C7 mph, W19%10000m1016hPa92%
17-Apr-2024 03:00Clear Sky13°C7 mph, SW0%10000m1017hPa89%
17-Apr-2024 06:00Clear Sky12°C7 mph, W0%10000m1017hPa87%
17-Apr-2024 09:00Clear Sky12°C7 mph, W0%10000m1018hPa88%
17-Apr-2024 12:00Clear Sky15°C9 mph, SW0%10000m1020hPa81%
17-Apr-2024 15:00Clear Sky21°C11 mph, SW0%10000m1020hPa64%
17-Apr-2024 18:00Few Clouds22°C13 mph, SW14%10000m1018hPa59%
17-Apr-2024 21:00Clear Sky19°C7 mph, SW1%10000m1018hPa80%
18-Apr-2024 00:00Few Clouds16°C4 mph, W12%10000m1020hPa88%
18-Apr-2024 03:00Clear Sky15°C4 mph, SW0%10000m1020hPa90%
18-Apr-2024 06:00Clear Sky14°C4 mph, SW0%10000m1020hPa92%
18-Apr-2024 09:00Clear Sky13°C4 mph, SW0%10000m1020hPa93%
18-Apr-2024 12:00Clear Sky17°C4 mph, SW0%10000m1022hPa84%
18-Apr-2024 15:00Clear Sky21°C4 mph, SW0%10000m1021hPa63%
18-Apr-2024 18:00Clear Sky23°C4 mph, SW2%10000m1019hPa59%
18-Apr-2024 21:00Clear Sky20°C2 mph, SW5%10000m1018hPa73%
19-Apr-2024 00:00Few Clouds16°C2 mph, SE21%10000m1019hPa81%
19-Apr-2024 03:00Overcast Clouds15°C4 mph, E85%10000m1019hPa85%
19-Apr-2024 06:00Overcast Clouds15°C4 mph, E93%10000m1018hPa86%
19-Apr-2024 09:00Broken Clouds13°C4 mph, E63%10000m1018hPa89%
19-Apr-2024 12:00Broken Clouds17°C7 mph, E53%10000m1019hPa80%
19-Apr-2024 15:00Clear Sky22°C7 mph, NE2%10000m1019hPa64%
19-Apr-2024 18:00Clear Sky24°C7 mph, NE1%10000m1016hPa58%
19-Apr-2024 21:00Clear Sky20°C7 mph, NE0%10000m1016hPa76%
20-Apr-2024 00:00Clear Sky16°C9 mph, E0%10000m1017hPa88%
20-Apr-2024 03:00Clear Sky15°C9 mph, E0%10000m1017hPa92%
20-Apr-2024 06:00Clear Sky14°C9 mph, E0%10000m1016hPa90%
20-Apr-2024 09:00Clear Sky13°C7 mph, E0%10000m1016hPa89%
20-Apr-2024 12:00Clear Sky17°C7 mph, NE0%10000m1017hPa79%
20-Apr-2024 15:00Clear Sky23°C9 mph, NE0%10000m1016hPa60%